Time;durP1;ratioP1;P1;durP2;ratioP2;P2;SDS_P1;SDS_P2;PMS_P1;PMS_P2;Temp;Humidity;BMP_temperature;BMP_pressure;BME280_temperature;BME280_humidity;BME280_pressure;Samples;Min_cycle;Max_cycle;Signal;HPM_P1;HPM_P2
2022/07/13 00:00:01;;;;;;;3.40;1.70;;;;;;;;;;5054332;28;20510;-76
2022/07/13 00:02:27;;;;;;;3.58;1.63;;;;;;;;;;5054250;28;20013;-76
2022/07/13 00:04:54;;;;;;;2.28;1.35;;;;;;;;;;5054068;28;20469;-75
2022/07/13 00:07:20;;;;;;;3.10;1.90;;;;;;;;;;5054193;28;20606;-76
2022/07/13 00:09:46;;;;;;;3.95;1.67;;;;;;;;;;5054197;28;20032;-77
2022/07/13 00:12:12;;;;;;;3.88;1.95;;;;;;;;;;5053992;28;20503;-76
2022/07/13 00:14:38;;;;;;;2.72;1.98;;;;;;;;;;5052361;28;20033;-76
2022/07/13 00:17:03;;;;;;;2.47;1.30;;;;;;;;;;5053642;28;20065;-76
2022/07/13 00:19:29;;;;;;;3.97;1.70;;;;;;;;;;5053817;28;20432;-76
2022/07/13 00:21:55;;;;;;;1.98;1.60;;;;;;;;;;5053902;28;20017;-77
2022/07/13 00:24:22;;;;;;;7.43;1.92;;;;;;;;;;5053878;28;20135;-77
2022/07/13 00:26:48;;;;;;;5.32;1.90;;;;;;;;;;5053635;28;20029;-76
2022/07/13 00:29:14;;;;;;;3.30;2.10;;;;;;;;;;5054260;28;20559;-76
2022/07/13 00:31:41;;;;;;;4.05;1.90;;;;;;;;;;5054162;28;20405;-77
2022/07/13 00:34:07;;;;;;;3.33;2.03;;;;;;;;;;5066137;28;20500;-75
2022/07/13 00:36:33;;;;;;;4.80;1.60;;;;;;;;;;5066432;28;20029;-75
2022/07/13 00:38:59;;;;;;;4.50;1.52;;;;;;;;;;5065114;28;20040;-77
2022/07/13 00:41:25;;;;;;;1.40;1.30;;;;;;;;;;5069438;28;20077;-76
2022/07/13 00:43:52;;;;;;;8.02;1.40;;;;;;;;;;5069343;28;20055;-76
2022/07/13 00:46:18;;;;;;;4.00;1.48;;;;;;;;;;5062684;28;20052;-76
2022/07/13 00:48:44;;;;;;;5.28;1.40;;;;;;;;;;5064214;28;20367;-76
2022/07/13 00:51:10;;;;;;;1.95;1.35;;;;;;;;;;5058819;28;20033;-76
2022/07/13 00:53:38;;;;;;;4.10;1.45;;;;;;;;;;5053753;28;20025;-76
2022/07/13 00:56:05;;;;;;;3.97;1.25;;;;;;;;;;5053663;28;20085;-77
2022/07/13 00:58:32;;;;;;;5.18;1.42;;;;;;;;;;5053099;28;20025;-75
2022/07/13 01:00:58;;;;;;;1.30;1.05;;;;;;;;;;5051612;28;20470;-76
2022/07/13 01:03:24;;;;;;;2.35;1.40;;;;;;;;;;5053221;28;20083;-75
2022/07/13 01:05:51;;;;;;;2.28;1.38;;;;;;;;;;5051661;28;20040;-76
2022/07/13 01:08:17;;;;;;;4.22;1.60;;;;;;;;;;5053579;28;20057;-77
2022/07/13 01:10:44;;;;;;;2.97;1.40;;;;;;;;;;5054101;28;20025;-76
2022/07/13 01:13:11;;;;;;;4.72;1.40;;;;;;;;;;5053801;28;20116;-77
2022/07/13 01:15:37;;;;;;;2.10;1.40;;;;;;;;;;5052259;28;20066;-76
2022/07/13 01:18:04;;;;;;;6.38;1.40;;;;;;;;;;5053521;28;20017;-77
2022/07/13 01:20:30;;;;;;;1.90;1.30;;;;;;;;;;5053238;28;20069;-77
2022/07/13 01:22:57;;;;;;;4.30;1.52;;;;;;;;;;5053272;28;20033;-76
2022/07/13 01:25:23;;;;;;;2.00;1.30;;;;;;;;;;5053470;28;20039;-76
2022/07/13 01:27:49;;;;;;;1.50;1.40;;;;;;;;;;5055853;28;20032;-77
2022/07/13 01:30:16;;;;;;;3.03;1.63;;;;;;;;;;5057198;28;20029;-77
2022/07/13 01:32:48;;;;;;;9.00;1.35;;;;;;;;;;5059537;28;20308;-76
2022/07/13 01:35:15;;;;;;;2.90;1.27;;;;;;;;;;5072331;28;20027;-76
2022/07/13 01:37:42;;;;;;;4.22;1.40;;;;;;;;;;5073332;28;20065;-76
2022/07/13 01:40:08;;;;;;;2.90;1.45;;;;;;;;;;5069948;28;20021;-76
2022/07/13 01:42:41;;;;;;;3.65;1.90;;;;;;;;;;5070698;28;20028;-76
2022/07/13 01:45:08;;;;;;;2.10;1.47;;;;;;;;;;5067578;28;20048;-77
2022/07/13 01:47:38;;;;;;;4.30;1.42;;;;;;;;;;5068031;28;20044;-76
2022/07/13 01:50:04;;;;;;;4.20;1.52;;;;;;;;;;5070198;28;20052;-76
2022/07/13 01:52:30;;;;;;;4.82;1.27;;;;;;;;;;5071356;28;20057;-76
2022/07/13 01:54:56;;;;;;;5.55;1.73;;;;;;;;;;5070433;28;20040;-76
2022/07/13 01:57:22;;;;;;;3.58;1.75;;;;;;;;;;5066939;28;20203;-76
2022/07/13 01:59:48;;;;;;;4.85;1.40;;;;;;;;;;5053553;28;20029;-76
2022/07/13 02:02:14;;;;;;;2.78;1.33;;;;;;;;;;5052561;28;20025;-77
2022/07/13 02:04:40;;;;;;;2.42;1.42;;;;;;;;;;5050259;28;20035;-76
2022/07/13 02:07:06;;;;;;;2.47;1.52;;;;;;;;;;5052687;28;20390;-77
2022/07/13 02:09:32;;;;;;;6.22;1.23;;;;;;;;;;5051965;28;20027;-78
2022/07/13 02:11:58;;;;;;;6.00;1.70;;;;;;;;;;5053078;28;20060;-77
2022/07/13 02:14:24;;;;;;;3.85;1.73;;;;;;;;;;5052612;28;20040;-78
2022/07/13 02:16:50;;;;;;;5.32;2.50;;;;;;;;;;5053306;28;20040;-76
2022/07/13 02:19:16;;;;;;;3.30;1.90;;;;;;;;;;5053753;28;20032;-78
2022/07/13 02:21:42;;;;;;;2.65;1.70;;;;;;;;;;5055315;28;20024;-76
2022/07/13 02:24:08;;;;;;;4.63;1.75;;;;;;;;;;5052783;28;20021;-76
2022/07/13 02:26:34;;;;;;;4.18;2.35;;;;;;;;;;5052417;28;20478;-77
2022/07/13 02:29:00;;;;;;;7.32;2.50;;;;;;;;;;5051610;28;20124;-76
2022/07/13 02:31:26;;;;;;;2.78;2.13;;;;;;;;;;5050454;28;20029;-79
2022/07/13 02:33:51;;;;;;;6.30;2.03;;;;;;;;;;5052060;28;20044;-77
2022/07/13 02:36:17;;;;;;;2.40;1.80;;;;;;;;;;5051771;28;20483;-76
2022/07/13 02:38:43;;;;;;;5.20;2.17;;;;;;;;;;5052496;28;20075;-75
2022/07/13 02:41:10;;;;;;;3.45;2.10;;;;;;;;;;5052174;28;20021;-77
2022/07/13 02:43:36;;;;;;;4.00;1.95;;;;;;;;;;5052280;28;20031;-77
2022/07/13 02:46:02;;;;;;;4.82;2.17;;;;;;;;;;5050520;28;20029;-76
2022/07/13 02:48:28;;;;;;;5.03;2.42;;;;;;;;;;5052281;28;20420;-76
2022/07/13 02:50:54;;;;;;;5.45;2.20;;;;;;;;;;5052440;28;20025;-76
2022/07/13 02:53:20;;;;;;;2.10;1.80;;;;;;;;;;5052376;28;20037;-77
2022/07/13 02:55:46;;;;;;;5.82;2.22;;;;;;;;;;5054982;28;20053;-76
2022/07/13 02:58:12;;;;;;;3.65;2.10;;;;;;;;;;5055242;28;20029;-76
2022/07/13 03:00:38;;;;;;;3.95;2.58;;;;;;;;;;5055386;28;20040;-75
2022/07/13 03:03:05;;;;;;;5.88;2.30;;;;;;;;;;5055869;28;20053;-76
2022/07/13 03:05:31;;;;;;;3.05;1.98;;;;;;;;;;5055522;28;20526;-77
2022/07/13 03:07:57;;;;;;;5.32;2.30;;;;;;;;;;5055616;28;20033;-76
2022/07/13 03:10:23;;;;;;;4.07;2.42;;;;;;;;;;5055277;28;20025;-76
2022/07/13 03:12:49;;;;;;;3.17;2.10;;;;;;;;;;5054496;28;20133;-76
2022/07/13 03:15:15;;;;;;;4.28;1.90;;;;;;;;;;5055349;28;20100;-75
2022/07/13 03:17:42;;;;;;;2.65;1.88;;;;;;;;;;5055210;28;20053;-76
2022/07/13 03:20:08;;;;;;;3.58;2.00;;;;;;;;;;5059535;28;20043;-75
2022/07/13 03:22:34;;;;;;;6.50;2.03;;;;;;;;;;5060717;28;20028;-77
2022/07/13 03:25:00;;;;;;;2.50;2.00;;;;;;;;;;5072616;28;20025;-76
2022/07/13 03:27:26;;;;;;;6.90;1.90;;;;;;;;;;5077731;28;20021;-76
2022/07/13 03:29:52;;;;;;;2.95;1.80;;;;;;;;;;5077455;28;20444;-75
2022/07/13 03:32:18;;;;;;;2.55;1.88;;;;;;;;;;5068797;28;20029;-76
2022/07/13 03:34:44;;;;;;;4.80;1.85;;;;;;;;;;5056626;28;20029;-75
2022/07/13 03:37:10;;;;;;;3.33;2.20;;;;;;;;;;5054938;28;20028;-78
2022/07/13 03:39:36;;;;;;;3.63;1.85;;;;;;;;;;5055219;28;20104;-76
2022/07/13 03:42:01;;;;;;;2.08;1.70;;;;;;;;;;5054469;28;20053;-75
2022/07/13 03:44:27;;;;;;;3.45;2.10;;;;;;;;;;5057519;28;20036;-77
2022/07/13 03:46:53;;;;;;;3.90;2.10;;;;;;;;;;5054666;28;20035;-75
2022/07/13 03:49:19;;;;;;;2.00;1.70;;;;;;;;;;5054022;28;20025;-76
2022/07/13 03:51:46;;;;;;;2.53;1.75;;;;;;;;;;5055278;28;20032;-76
2022/07/13 03:54:12;;;;;;;4.20;1.70;;;;;;;;;;5055419;28;20025;-75
2022/07/13 03:56:39;;;;;;;3.88;2.17;;;;;;;;;;5055406;28;20386;-77
2022/07/13 03:59:05;;;;;;;6.05;1.90;;;;;;;;;;5056191;28;20013;-77
2022/07/13 04:01:31;;;;;;;4.43;1.90;;;;;;;;;;5059382;28;20029;-77
2022/07/13 04:03:58;;;;;;;3.30;2.40;;;;;;;;;;5055657;28;20079;-78
2022/07/13 04:06:24;;;;;;;3.28;2.38;;;;;;;;;;5056108;28;20474;-75
2022/07/13 04:08:50;;;;;;;6.35;2.03;;;;;;;;;;5055735;28;20402;-77
2022/07/13 04:11:17;;;;;;;2.28;1.77;;;;;;;;;;5054327;28;20112;-75
2022/07/13 04:13:43;;;;;;;3.95;1.95;;;;;;;;;;5053504;28;20040;-77
2022/07/13 04:16:09;;;;;;;3.70;1.75;;;;;;;;;;5053791;28;20029;-76
2022/07/13 04:18:35;;;;;;;8.30;1.80;;;;;;;;;;5053885;28;20086;-76
2022/07/13 04:21:01;;;;;;;3.70;1.60;;;;;;;;;;5053847;28;20470;-77
2022/07/13 04:23:29;;;;;;;5.45;2.30;;;;;;;;;;5052426;28;20037;-76
2022/07/13 04:25:55;;;;;;;3.22;1.90;;;;;;;;;;5052228;28;20109;-77
2022/07/13 04:28:20;;;;;;;10.48;2.08;;;;;;;;;;5053396;28;20032;-77
2022/07/13 04:30:46;;;;;;;7.72;2.28;;;;;;;;;;5053914;28;20021;-79
2022/07/13 04:33:12;;;;;;;5.78;2.10;;;;;;;;;;5054306;28;20391;-78
2022/07/13 04:35:38;;;;;;;2.17;1.80;;;;;;;;;;5053607;28;20482;-77
2022/07/13 04:38:04;;;;;;;9.18;2.08;;;;;;;;;;5053442;28;20390;-76
2022/07/13 04:40:30;;;;;;;8.63;2.10;;;;;;;;;;5053501;28;20045;-76
2022/07/13 04:42:56;;;;;;;6.63;2.38;;;;;;;;;;5052335;28;20029;-78
2022/07/13 04:45:22;;;;;;;4.57;1.85;;;;;;;;;;5053853;28;20048;-78
2022/07/13 04:47:49;;;;;;;5.72;2.13;;;;;;;;;;5054152;28;20075;-77
2022/07/13 04:50:15;;;;;;;4.63;2.20;;;;;;;;;;5055199;28;20066;-74
2022/07/13 04:52:40;;;;;;;8.15;2.28;;;;;;;;;;5054244;28;20071;-76
2022/07/13 04:55:07;;;;;;;7.28;2.20;;;;;;;;;;5053871;28;20021;-75
2022/07/13 04:57:33;;;;;;;3.83;2.08;;;;;;;;;;5053856;28;20043;-76
2022/07/13 04:59:59;;;;;;;4.90;2.72;;;;;;;;;;5053477;28;20382;-75
2022/07/13 05:02:25;;;;;;;9.18;2.30;;;;;;;;;;5053042;28;20119;-75
2022/07/13 05:04:51;;;;;;;3.53;2.10;;;;;;;;;;5052881;28;20044;-75
2022/07/13 05:07:17;;;;;;;3.60;2.00;;;;;;;;;;5052759;28;20021;-75
2022/07/13 05:09:43;;;;;;;4.80;2.10;;;;;;;;;;5052517;28;20017;-74
2022/07/13 05:12:09;;;;;;;2.90;2.15;;;;;;;;;;5052896;28;20021;-77
2022/07/13 05:14:35;;;;;;;6.70;2.15;;;;;;;;;;5051736;28;20100;-78
2022/07/13 05:17:01;;;;;;;3.65;2.00;;;;;;;;;;5050876;28;20055;-77
2022/07/13 05:19:27;;;;;;;5.22;2.10;;;;;;;;;;5052985;28;20485;-78
2022/07/13 05:21:53;;;;;;;16.13;6.88;;;;;;;;;;5052621;28;20025;-76
2022/07/13 05:24:19;;;;;;;4.10;2.10;;;;;;;;;;5052721;28;20036;-79
2022/07/13 05:26:45;;;;;;;4.22;2.33;;;;;;;;;;5052768;28;20025;-78
2022/07/13 05:29:11;;;;;;;6.43;2.00;;;;;;;;;;5053192;28;20036;-77
2022/07/13 05:31:37;;;;;;;3.47;2.60;;;;;;;;;;5059549;28;20059;-79
2022/07/13 05:34:03;;;;;;;7.18;2.53;;;;;;;;;;5074171;28;20071;-78
2022/07/13 05:36:29;;;;;;;3.13;1.92;;;;;;;;;;5058332;28;20033;-76
2022/07/13 05:38:55;;;;;;;6.97;2.00;;;;;;;;;;5052451;28;20032;-76
2022/07/13 05:41:21;;;;;;;3.47;2.20;;;;;;;;;;5052577;28;20085;-76
2022/07/13 05:43:47;;;;;;;4.00;2.03;;;;;;;;;;5052418;28;20394;-78
2022/07/13 05:46:13;;;;;;;5.15;2.40;;;;;;;;;;5053096;28;20025;-78
2022/07/13 05:48:39;;;;;;;3.17;1.90;;;;;;;;;;5053705;28;20021;-81
2022/07/13 05:51:05;;;;;;;4.80;2.28;;;;;;;;;;5052360;28;20032;-77
2022/07/13 05:53:31;;;;;;;6.03;1.90;;;;;;;;;;5053627;28;20029;-79
2022/07/13 05:55:57;;;;;;;6.28;2.30;;;;;;;;;;5052735;28;20055;-77
2022/07/13 05:58:23;;;;;;;3.00;1.90;;;;;;;;;;5053997;28;20445;-76
2022/07/13 06:00:49;;;;;;;8.20;2.50;;;;;;;;;;5053624;28;20021;-76
2022/07/13 06:03:15;;;;;;;7.70;1.73;;;;;;;;;;5052116;28;20087;-76
2022/07/13 06:05:41;;;;;;;6.13;2.78;;;;;;;;;;5053061;28;20474;-76
2022/07/13 06:08:07;;;;;;;4.40;2.08;;;;;;;;;;5052108;28;20413;-75
2022/07/13 06:10:33;;;;;;;4.97;2.50;;;;;;;;;;5051961;28;20474;-75
2022/07/13 06:13:00;;;;;;;5.50;2.45;;;;;;;;;;5051729;28;20566;-75
2022/07/13 06:15:26;;;;;;;4.20;2.50;;;;;;;;;;5052532;28;20393;-78
2022/07/13 06:17:52;;;;;;;12.00;3.13;;;;;;;;;;5054181;28;20029;-76
2022/07/13 06:20:18;;;;;;;6.53;2.78;;;;;;;;;;5053109;28;20029;-76
2022/07/13 06:23:09;;;;;;;7.75;3.10;;;;;;;;;;5056020;28;20162;-78
2022/07/13 06:25:29;;;;;;;4.30;2.30;;;;;;;;;;5056488;28;20379;-79
2022/07/13 06:27:55;;;;;;;7.38;4.10;;;;;;;;;;5063311;28;20043;-78
2022/07/13 06:30:21;;;;;;;10.23;3.63;;;;;;;;;;5056824;28;20036;-78
2022/07/13 06:32:47;;;;;;;5.70;2.65;;;;;;;;;;5057410;28;20064;-77
2022/07/13 06:35:13;;;;;;;7.22;2.90;;;;;;;;;;5056914;28;20089;-77
2022/07/13 06:37:39;;;;;;;8.85;3.10;;;;;;;;;;5056047;28;20029;-77
2022/07/13 06:40:05;;;;;;;8.13;2.38;;;;;;;;;;5058232;28;20055;-76
2022/07/13 06:42:31;;;;;;;5.15;2.88;;;;;;;;;;5058971;28;20021;-77
2022/07/13 06:44:57;;;;;;;5.38;3.20;;;;;;;;;;5066082;28;20077;-77
2022/07/13 06:47:23;;;;;;;4.50;2.63;;;;;;;;;;5063619;28;20021;-77
2022/07/13 06:49:49;;;;;;;5.22;2.85;;;;;;;;;;5055491;28;20025;-77
2022/07/13 06:52:15;;;;;;;6.18;2.67;;;;;;;;;;5055759;28;20048;-76
2022/07/13 06:54:41;;;;;;;5.05;2.60;;;;;;;;;;5055297;28;20389;-77
2022/07/13 06:57:07;;;;;;;7.80;2.70;;;;;;;;;;5053677;28;20024;-77
2022/07/13 06:59:33;;;;;;;16.40;3.13;;;;;;;;;;5056720;28;20478;-76
2022/07/13 07:01:59;;;;;;;6.35;3.15;;;;;;;;;;5054720;28;20021;-77
2022/07/13 07:04:25;;;;;;;10.07;3.03;;;;;;;;;;5054938;28;20052;-77
2022/07/13 07:06:51;;;;;;;13.10;3.53;;;;;;;;;;5055297;28;20098;-76
2022/07/13 07:09:17;;;;;;;5.63;3.30;;;;;;;;;;5055754;28;20021;-75
2022/07/13 07:11:44;;;;;;;10.90;3.80;;;;;;;;;;5055867;28;20060;-76
2022/07/13 07:14:10;;;;;;;8.20;3.00;;;;;;;;;;5057146;28;20029;-77
2022/07/13 07:16:37;;;;;;;8.00;3.33;;;;;;;;;;5055020;28;20468;-77
2022/07/13 07:19:03;;;;;;;6.55;3.00;;;;;;;;;;5057919;28;20040;-76
2022/07/13 07:21:30;;;;;;;7.13;3.15;;;;;;;;;;5056468;28;20021;-81
2022/07/13 07:23:55;;;;;;;10.73;3.42;;;;;;;;;;5055903;28;20025;-78
2022/07/13 07:26:21;;;;;;;9.25;3.50;;;;;;;;;;5056186;28;20036;-76
2022/07/13 07:28:47;;;;;;;10.00;3.15;;;;;;;;;;5057373;28;20050;-75
2022/07/13 07:31:13;;;;;;;7.13;3.30;;;;;;;;;;5055407;28;20516;-78
2022/07/13 07:33:39;;;;;;;8.07;2.92;;;;;;;;;;5054732;28;20028;-77
2022/07/13 07:36:05;;;;;;;12.60;3.00;;;;;;;;;;5054345;28;20029;-77
2022/07/13 07:38:31;;;;;;;7.07;3.17;;;;;;;;;;5056124;28;20023;-75
2022/07/13 07:40:58;;;;;;;9.55;3.00;;;;;;;;;;5054346;28;20033;-78
2022/07/13 07:43:24;;;;;;;11.82;3.55;;;;;;;;;;5056946;28;20029;-78
2022/07/13 07:45:50;;;;;;;6.30;2.97;;;;;;;;;;5055704;28;20110;-77
2022/07/13 07:48:16;;;;;;;11.60;5.20;;;;;;;;;;5061530;28;20029;-76
2022/07/13 07:50:42;;;;;;;4.88;3.40;;;;;;;;;;5068509;28;20044;-77
2022/07/13 07:53:08;;;;;;;8.02;3.50;;;;;;;;;;5062514;28;20078;-77
2022/07/13 07:55:34;;;;;;;7.38;3.60;;;;;;;;;;5055292;28;20025;-76
2022/07/13 07:58:00;;;;;;;7.07;3.58;;;;;;;;;;5053446;28;20056;-77
2022/07/13 08:00:26;;;;;;;6.13;3.90;;;;;;;;;;5054304;28;20025;-78
2022/07/13 08:02:52;;;;;;;6.70;3.45;;;;;;;;;;5054370;28;20100;-78
2022/07/13 08:05:18;;;;;;;7.40;3.63;;;;;;;;;;5054110;28;20101;-78
2022/07/13 08:07:45;;;;;;;6.55;3.53;;;;;;;;;;5054917;28;20108;-76
2022/07/13 08:10:12;;;;;;;5.75;3.20;;;;;;;;;;5055820;28;20087;-78
2022/07/13 08:12:38;;;;;;;11.57;3.95;;;;;;;;;;5059543;28;20036;-76
2022/07/13 08:15:07;;;;;;;8.43;3.53;;;;;;;;;;5059073;28;20102;-77
2022/07/13 08:17:33;;;;;;;8.15;3.10;;;;;;;;;;5056637;28;20039;-76
2022/07/13 08:19:59;;;;;;;9.70;3.85;;;;;;;;;;5063032;28;20021;-77
2022/07/13 08:22:25;;;;;;;6.68;3.50;;;;;;;;;;5063609;28;20036;-77
2022/07/13 08:24:51;;;;;;;7.50;3.60;;;;;;;;;;5055155;28;20095;-76
2022/07/13 08:27:17;;;;;;;7.25;3.40;;;;;;;;;;5054827;28;20032;-78
2022/07/13 08:29:43;;;;;;;7.43;4.30;;;;;;;;;;5053784;28;20118;-77
2022/07/13 08:32:09;;;;;;;9.25;4.05;;;;;;;;;;5060550;28;20025;-77
2022/07/13 08:40:08;;;;;;;8.75;4.18;;;;;;;;;;5062126;28;20100;-77
2022/07/13 08:42:35;;;;;;;13.98;4.10;;;;;;;;;;5062278;28;20072;-76
2022/07/13 08:45:01;;;;;;;10.50;3.40;;;;;;;;;;5054983;28;20025;-77
2022/07/13 08:47:29;;;;;;;3.83;2.88;;;;;;;;;;5055317;28;20029;-76
2022/07/13 08:49:58;;;;;;;10.13;3.33;;;;;;;;;;5057845;28;20028;-77
2022/07/13 08:52:25;;;;;;;10.00;3.60;;;;;;;;;;5057928;28;20029;-76
2022/07/13 08:54:52;;;;;;;6.05;3.95;;;;;;;;;;5056027;28;20025;-77
2022/07/13 08:57:19;;;;;;;7.45;4.07;;;;;;;;;;5053194;28;20532;-76
2022/07/13 08:59:45;;;;;;;14.85;4.38;;;;;;;;;;5053342;28;20025;-77
2022/07/13 09:02:11;;;;;;;11.30;4.15;;;;;;;;;;5054285;28;20052;-76
2022/07/13 09:04:38;;;;;;;13.48;4.00;;;;;;;;;;5053602;28;20452;-75
2022/07/13 09:07:06;;;;;;;7.43;3.58;;;;;;;;;;5052831;28;20036;-77
2022/07/13 09:09:35;;;;;;;13.55;3.40;;;;;;;;;;5053665;28;20057;-78
2022/07/13 09:12:21;;;;;;;9.02;3.58;;;;;;;;;;5054444;28;20036;-78
2022/07/13 09:15:05;;;;;;;9.35;4.00;;;;;;;;;;5060920;28;20452;-76
2022/07/13 09:17:33;;;;;;;7.40;4.32;;;;;;;;;;5067247;28;20044;-77
2022/07/13 09:20:02;;;;;;;9.57;4.55;;;;;;;;;;5064566;28;20029;-77
2022/07/13 09:22:28;;;;;;;7.22;4.20;;;;;;;;;;5057286;28;20021;-76
2022/07/13 09:24:54;;;;;;;10.43;4.80;;;;;;;;;;5056780;28;20032;-77
2022/07/13 09:27:21;;;;;;;14.70;5.63;;;;;;;;;;5065205;28;20029;-77
2022/07/13 09:29:47;;;;;;;7.22;4.25;;;;;;;;;;5067540;28;20025;-76
2022/07/13 09:32:13;;;;;;;7.07;4.10;;;;;;;;;;5054150;28;20021;-75
2022/07/13 09:34:57;;;;;;;10.20;4.28;;;;;;;;;;5052951;28;20066;-75
2022/07/13 09:37:24;;;;;;;13.32;4.68;;;;;;;;;;5052779;28;20087;-77
2022/07/13 09:39:57;;;;;;;8.38;3.92;;;;;;;;;;5053028;28;20566;-78
2022/07/13 09:42:29;;;;;;;12.50;5.05;;;;;;;;;;5053284;28;20527;-77
2022/07/13 09:47:41;;;;;;;6.88;4.10;;;;;;;;;;5053543;28;20422;-75
2022/07/13 09:50:08;;;;;;;6.95;3.65;;;;;;;;;;5053898;28;20465;-75
2022/07/13 09:52:34;;;;;;;10.27;4.68;;;;;;;;;;5053406;28;20029;-75
2022/07/13 09:55:04;;;;;;;8.18;4.38;;;;;;;;;;5053254;28;20037;-76
2022/07/13 09:57:32;;;;;;;7.78;4.28;;;;;;;;;;5052734;28;20017;-76
2022/07/13 09:59:58;;;;;;;10.20;4.25;;;;;;;;;;5054829;28;20107;-79
2022/07/13 10:02:24;;;;;;;9.13;5.72;;;;;;;;;;5053946;28;20174;-77
2022/07/13 10:04:51;;;;;;;9.98;5.45;;;;;;;;;;5059586;28;20545;-76
2022/07/13 10:07:18;;;;;;;13.77;4.28;;;;;;;;;;5057466;28;20025;-76
2022/07/13 10:09:44;;;;;;;10.07;5.55;;;;;;;;;;5057941;28;20024;-75
2022/07/13 10:12:10;;;;;;;9.45;5.28;;;;;;;;;;5057025;28;20029;-77
2022/07/13 10:14:37;;;;;;;17.10;6.28;;;;;;;;;;5097797;22;20055;-79
2022/07/13 10:17:13;;;;;;;13.52;4.97;;;;;;;;;;5079450;28;20078;-78
2022/07/13 10:20:05;;;;;;;8.23;4.70;;;;;;;;;;5080913;28;20095;-79
2022/07/13 10:22:34;;;;;;;10.23;4.38;;;;;;;;;;5069927;28;20500;-78
2022/07/13 10:25:01;;;;;;;9.55;5.55;;;;;;;;;;5095270;28;20035;-78
2022/07/13 10:27:30;;;;;;;19.95;4.80;;;;;;;;;;5086674;28;20020;-78
2022/07/13 10:30:08;;;;;;;12.27;5.22;;;;;;;;;;5092189;28;20052;-79
2022/07/13 10:32:39;;;;;;;9.77;5.30;;;;;;;;;;5086635;28;20044;-78
2022/07/13 10:35:05;;;;;;;8.43;4.90;;;;;;;;;;5087076;28;20036;-79
2022/07/13 10:37:49;;;;;;;10.02;5.00;;;;;;;;;;5090702;28;20025;-78
2022/07/13 10:40:16;;;;;;;9.65;5.10;;;;;;;;;;5090109;28;20481;-78
2022/07/13 10:42:55;;;;;;;14.02;4.95;;;;;;;;;;5085193;28;20027;-78
2022/07/13 10:45:34;;;;;;;8.27;5.10;;;;;;;;;;5090509;28;20036;-78
2022/07/13 10:48:02;;;;;;;13.85;6.03;;;;;;;;;;5087800;28;20080;-77
2022/07/13 10:50:34;;;;;;;12.95;4.82;;;;;;;;;;5088718;28;20034;-79
2022/07/13 10:53:01;;;;;;;7.05;4.47;;;;;;;;;;5086724;28;20051;-78
2022/07/13 10:55:31;;;;;;;12.05;5.65;;;;;;;;;;5076743;28;20025;-79
2022/07/13 10:57:57;;;;;;;5.95;4.22;;;;;;;;;;5092117;28;20465;-78
2022/07/13 11:00:36;;;;;;;10.40;5.35;;;;;;;;;;5085405;28;20389;-77
2022/07/13 11:03:04;;;;;;;8.45;4.43;;;;;;;;;;5081601;28;20048;-79
2022/07/13 11:05:34;;;;;;;12.68;4.78;;;;;;;;;;5089978;28;20096;-79
2022/07/13 11:08:11;;;;;;;12.27;4.25;;;;;;;;;;5068401;28;20097;-76
2022/07/13 11:10:37;;;;;;;11.75;6.43;;;;;;;;;;5086333;28;20021;-78
2022/07/13 11:13:06;;;;;;;15.05;6.53;;;;;;;;;;5082455;28;20036;-78
2022/07/13 11:15:44;;;;;;;7.63;4.90;;;;;;;;;;5087044;28;20024;-78
2022/07/13 11:18:22;;;;;;;14.18;6.15;;;;;;;;;;5080340;28;20686;-77
2022/07/13 11:20:58;;;;;;;10.05;4.57;;;;;;;;;;5086489;28;20041;-77
2022/07/13 11:26:13;;;;;;;5.28;3.85;;;;;;;;;;5088944;28;20111;-79
2022/07/13 11:28:54;;;;;;;9.32;3.40;;;;;;;;;;5084281;28;20024;-78
2022/07/13 11:31:21;;;;;;;10.27;5.10;;;;;;;;;;5086004;28;20036;-78
2022/07/13 11:33:50;;;;;;;9.65;4.00;;;;;;;;;;5087304;28;20153;-78
2022/07/13 11:36:24;;;;;;;16.85;4.25;;;;;;;;;;5090214;28;20035;-79
2022/07/13 11:38:51;;;;;;;8.52;5.18;;;;;;;;;;5063418;28;20043;-78
2022/07/13 11:41:18;;;;;;;6.85;3.30;;;;;;;;;;5080959;28;20100;-78
2022/07/13 11:43:48;;;;;;;11.65;5.35;;;;;;;;;;5085549;28;20021;-78
2022/07/13 11:46:14;;;;;;;9.57;6.28;;;;;;;;;;5093281;28;20021;-77
2022/07/13 11:48:41;;;;;;;11.80;4.75;;;;;;;;;;5090482;28;20032;-78
2022/07/13 11:51:08;;;;;;;14.75;5.45;;;;;;;;;;5094999;28;20043;-77
2022/07/13 11:53:34;;;;;;;11.43;4.50;;;;;;;;;;5095923;28;20105;-78
2022/07/13 11:56:04;;;;;;;13.25;4.65;;;;;;;;;;5094921;28;20565;-79
2022/07/13 11:58:32;;;;;;;10.23;3.60;;;;;;;;;;5080096;28;20024;-79
2022/07/13 12:00:59;;;;;;;8.80;4.20;;;;;;;;;;5083716;28;20092;-78
2022/07/13 12:03:34;;;;;;;6.95;3.80;;;;;;;;;;5087838;28;20032;-79
2022/07/13 12:06:01;;;;;;;7.18;3.17;;;;;;;;;;5078346;28;20050;-78
2022/07/13 12:08:27;;;;;;;13.82;4.40;;;;;;;;;;5066460;28;20032;-77
2022/07/13 12:10:54;;;;;;;11.52;3.75;;;;;;;;;;5085345;28;20092;-78
2022/07/13 12:13:20;;;;;;;7.05;4.10;;;;;;;;;;5068985;28;20031;-79
2022/07/13 12:15:46;;;;;;;7.07;3.70;;;;;;;;;;5097812;28;20016;-78
2022/07/13 12:18:13;;;;;;;7.63;3.80;;;;;;;;;;5094946;28;20147;-80
2022/07/13 12:20:40;;;;;;;8.70;3.83;;;;;;;;;;5106193;28;20020;-78
2022/07/13 12:23:09;;;;;;;14.57;4.80;;;;;;;;;;5088092;28;20028;-80
2022/07/13 12:25:36;;;;;;;9.02;4.72;;;;;;;;;;5100355;28;20081;-78
2022/07/13 12:28:03;;;;;;;8.88;3.97;;;;;;;;;;5096503;28;20082;-78
2022/07/13 12:30:33;;;;;;;9.43;3.90;;;;;;;;;;5096892;28;20028;-78
2022/07/13 12:32:59;;;;;;;12.13;3.80;;;;;;;;;;5098752;28;20097;-78
2022/07/13 12:35:26;;;;;;;9.38;3.45;;;;;;;;;;5097609;28;20047;-79
2022/07/13 12:37:55;;;;;;;5.80;2.80;;;;;;;;;;5103174;28;20024;-78
2022/07/13 12:40:36;;;;;;;5.20;2.95;;;;;;;;;;5102107;28;20033;-77
2022/07/13 12:43:01;;;;;;;9.30;3.13;;;;;;;;;;5101229;28;20028;-77
2022/07/13 12:45:31;;;;;;;7.05;3.17;;;;;;;;;;5100930;28;20150;-79
2022/07/13 12:47:57;;;;;;;5.55;2.90;;;;;;;;;;5102741;28;20033;-78
2022/07/13 12:50:26;;;;;;;6.20;2.97;;;;;;;;;;5097005;28;20024;-78
2022/07/13 12:53:02;;;;;;;6.43;2.85;;;;;;;;;;5098937;28;20250;-79
2022/07/13 12:55:28;;;;;;;11.80;2.58;;;;;;;;;;5099066;28;20027;-79
2022/07/13 12:57:54;;;;;;;5.90;2.20;;;;;;;;;;5097012;28;20027;-77
2022/07/13 13:00:27;;;;;;;6.82;3.35;;;;;;;;;;5097656;28;20044;-79
2022/07/13 13:02:53;;;;;;;7.53;2.50;;;;;;;;;;5097157;28;20020;-79
2022/07/13 13:05:19;;;;;;;4.63;2.60;;;;;;;;;;5094856;28;20095;-79
2022/07/13 13:07:45;;;;;;;8.18;3.20;;;;;;;;;;5097582;28;20024;-79
2022/07/13 13:10:11;;;;;;;7.90;4.25;;;;;;;;;;5078120;28;20143;-79
2022/07/13 13:12:37;;;;;;;8.00;3.50;;;;;;;;;;5078759;28;20042;-79
2022/07/13 13:15:03;;;;;;;7.43;3.13;;;;;;;;;;5095279;28;20028;-78
2022/07/13 13:17:30;;;;;;;9.10;3.72;;;;;;;;;;5078201;28;20036;-79
2022/07/13 13:19:56;;;;;;;6.03;3.42;;;;;;;;;;5098964;28;20047;-78
2022/07/13 13:22:22;;;;;;;12.05;3.90;;;;;;;;;;5109515;28;20024;-78
2022/07/13 13:24:48;;;;;;;5.75;3.20;;;;;;;;;;5101159;28;20031;-78
2022/07/13 13:27:14;;;;;;;11.05;3.38;;;;;;;;;;5081485;28;20108;-78
2022/07/13 13:32:24;;;;;;;10.52;2.55;;;;;;;;;;5097739;28;20094;-79
2022/07/13 13:34:51;;;;;;;3.50;2.38;;;;;;;;;;5097925;28;20024;-79
2022/07/13 13:37:17;;;;;;;4.45;2.15;;;;;;;;;;5094737;28;20057;-79
2022/07/13 13:39:43;;;;;;;5.40;2.90;;;;;;;;;;5100201;28;20024;-79
2022/07/13 13:42:09;;;;;;;7.18;1.92;;;;;;;;;;5084076;28;20019;-78
2022/07/13 13:44:35;;;;;;;7.97;2.00;;;;;;;;;;5078285;28;20024;-81
2022/07/13 13:47:01;;;;;;;4.15;2.03;;;;;;;;;;5078769;28;20024;-78
2022/07/13 13:49:27;;;;;;;6.32;2.05;;;;;;;;;;5078007;28;20038;-79
2022/07/13 13:51:53;;;;;;;5.15;2.00;;;;;;;;;;5080786;28;20076;-77
2022/07/13 13:54:19;;;;;;;4.53;1.40;;;;;;;;;;5081467;28;20028;-78
2022/07/13 13:56:45;;;;;;;3.88;1.70;;;;;;;;;;5059853;28;20028;-79
2022/07/13 13:59:11;;;;;;;7.78;1.85;;;;;;;;;;5073805;28;20083;-78
2022/07/13 14:01:38;;;;;;;9.23;1.90;;;;;;;;;;5075369;28;20029;-78
2022/07/13 14:04:04;;;;;;;6.70;2.55;;;;;;;;;;5074002;28;20111;-78
2022/07/13 14:06:31;;;;;;;8.18;1.75;;;;;;;;;;5075665;28;20078;-80
2022/07/13 14:08:57;;;;;;;2.78;1.50;;;;;;;;;;5075260;28;20031;-79
2022/07/13 14:11:23;;;;;;;5.47;1.70;;;;;;;;;;5076964;28;20105;-79
2022/07/13 14:13:48;;;;;;;4.95;1.83;;;;;;;;;;5081232;28;20048;-79
2022/07/13 14:16:15;;;;;;;4.38;2.03;;;;;;;;;;5061748;28;20108;-78
2022/07/13 14:18:41;;;;;;;11.02;2.90;;;;;;;;;;5096852;28;20017;-78
2022/07/13 14:21:07;;;;;;;6.15;1.88;;;;;;;;;;5096854;28;20020;-78
2022/07/13 14:23:33;;;;;;;8.07;2.17;;;;;;;;;;5079685;28;20021;-79
2022/07/13 14:25:59;;;;;;;10.95;4.18;;;;;;;;;;5093520;28;20013;-77
2022/07/13 14:28:25;;;;;;;8.95;2.33;;;;;;;;;;5091786;28;20043;-77
2022/07/13 14:30:51;;;;;;;5.72;2.55;;;;;;;;;;5067365;28;20470;-78
2022/07/13 14:33:17;;;;;;;6.57;2.33;;;;;;;;;;5065406;28;20052;-77
2022/07/13 14:35:44;;;;;;;15.35;2.60;;;;;;;;;;5082009;28;20021;-77
2022/07/13 14:38:10;;;;;;;7.63;1.92;;;;;;;;;;5085260;28;20013;-79
2022/07/13 14:40:38;;;;;;;5.25;2.03;;;;;;;;;;5065867;28;20025;-80
2022/07/13 14:43:04;;;;;;;7.32;2.17;;;;;;;;;;5089375;28;20032;-78
2022/07/13 14:45:30;;;;;;;3.15;1.70;;;;;;;;;;5072408;28;20454;-80
2022/07/13 14:47:56;;;;;;;6.25;2.25;;;;;;;;;;5077342;28;20060;-82
2022/07/13 14:50:22;;;;;;;11.07;2.65;;;;;;;;;;5081361;28;20028;-79
2022/07/13 14:52:48;;;;;;;9.18;2.75;;;;;;;;;;5088297;28;20059;-78